createdAt,value
2018-11-25T00:01:24.979Z,4.39
2018-11-25T00:03:55.162Z,4.39
2018-11-25T00:06:25.079Z,4.38
2018-11-25T00:08:55.235Z,4.38
2018-11-25T00:11:25.105Z,4.37
2018-11-25T00:13:55.072Z,4.32
2018-11-25T00:16:24.956Z,4.37
2018-11-25T00:18:55.128Z,4.41
2018-11-25T00:21:25.013Z,4.40
2018-11-25T00:23:54.877Z,4.40
2018-11-25T00:26:25.280Z,4.39
2018-11-25T00:28:55.199Z,4.38
2018-11-25T00:31:25.049Z,4.38
2018-11-25T00:33:55.336Z,4.39
2018-11-25T00:36:25.766Z,4.44
2018-11-25T00:38:55.677Z,4.49
2018-11-25T00:41:25.904Z,4.46
2018-11-25T00:43:55.727Z,4.42
2018-11-25T00:46:25.590Z,4.41
2018-11-25T00:48:55.478Z,4.39
2018-11-25T00:51:25.319Z,4.37
2018-11-25T00:53:55.197Z,4.45
2018-11-25T00:56:25.115Z,4.45
2018-11-25T00:58:54.953Z,4.44
2018-11-25T01:01:24.833Z,4.47
2018-11-25T01:03:54.719Z,4.43
2018-11-25T01:06:24.575Z,4.40
2018-11-25T01:08:54.424Z,4.37
2018-11-25T01:11:24.793Z,4.34
2018-11-25T01:13:54.706Z,4.32
2018-11-25T01:16:24.630Z,4.38
2018-11-25T01:18:54.943Z,4.34
2018-11-25T01:21:25.184Z,4.33
2018-11-25T01:23:55.006Z,4.31
2018-11-25T01:26:24.986Z,4.35
2018-11-25T01:28:54.973Z,4.32
2018-11-25T01:31:24.806Z,4.28
2018-11-25T01:33:54.774Z,4.34
2018-11-25T01:36:24.720Z,4.34
2018-11-25T01:38:54.613Z,4.33
2018-11-25T01:41:24.484Z,4.34
2018-11-25T01:43:54.412Z,4.33
2018-11-25T01:46:24.208Z,4.35
2018-11-25T01:48:54.039Z,4.40
2018-11-25T01:51:24.023Z,4.44
2018-11-25T01:53:53.831Z,4.41
2018-11-25T01:56:23.973Z,4.49
2018-11-25T01:58:53.942Z,4.43
2018-11-25T02:01:23.810Z,4.47
2018-11-25T02:03:54.376Z,4.47
2018-11-25T02:06:24.586Z,4.41
2018-11-25T02:08:54.423Z,4.44
2018-11-25T02:11:24.335Z,4.41
2018-11-25T02:13:54.543Z,4.39
2018-11-25T02:16:24.423Z,4.38
2018-11-25T02:18:54.282Z,4.33
2018-11-25T02:21:24.676Z,4.32
2018-11-25T02:23:55.093Z,4.35
2018-11-25T02:26:24.939Z,4.40
2018-11-25T02:28:54.886Z,4.42
2018-11-25T02:31:25.006Z,4.41
2018-11-25T02:33:54.808Z,4.44
2018-11-25T02:36:43.879Z,4.47
2018-11-25T02:39:13.802Z,4.49
2018-11-25T02:41:43.661Z,4.52
2018-11-25T02:44:13.965Z,4.49
2018-11-25T02:46:44.132Z,4.48
2018-11-25T02:49:14.214Z,4.61
2018-11-25T02:51:44.478Z,4.73
2018-11-25T02:54:15.079Z,4.81
2018-11-25T02:56:45.334Z,4.66
2018-11-25T02:59:15.883Z,4.58
2018-11-25T03:01:46.173Z,4.57
2018-11-25T03:04:16.126Z,4.55
2018-11-25T03:06:45.892Z,4.55
2018-11-25T03:09:15.802Z,4.55
2018-11-25T03:11:45.722Z,4.56
2018-11-25T03:14:15.931Z,4.60
2018-11-25T03:16:45.794Z,4.58
2018-11-25T03:19:15.609Z,4.60
2018-11-25T03:21:45.718Z,4.60
2018-11-25T03:24:15.684Z,4.60
2018-11-25T03:26:45.762Z,4.60
2018-11-25T03:29:15.672Z,4.56
2018-11-25T03:31:45.540Z,4.57
2018-11-25T03:34:15.671Z,4.59
2018-11-25T03:37:04.496Z,4.58
2018-11-25T03:39:34.374Z,4.59
2018-11-25T03:42:04.201Z,4.59
2018-11-25T03:44:34.434Z,4.58
2018-11-25T03:47:04.386Z,4.58
2018-11-25T03:49:34.132Z,4.59
2018-11-25T03:52:04.778Z,4.60
2018-11-25T03:54:35.003Z,4.61
2018-11-25T03:57:04.883Z,4.62
2018-11-25T03:59:35.051Z,4.63
2018-11-25T04:02:04.840Z,4.66
2018-11-25T04:04:34.716Z,4.68
2018-11-25T04:07:04.540Z,4.69
2018-11-25T04:09:34.807Z,4.74
2018-11-25T04:12:04.662Z,4.78
2018-11-25T04:14:34.525Z,4.78
2018-11-25T04:17:04.465Z,4.74
2018-11-25T04:19:34.291Z,4.72
2018-11-25T04:22:22.964Z,4.73
2018-11-25T04:24:52.799Z,4.72
2018-11-25T04:27:22.632Z,4.74
2018-11-25T04:29:52.567Z,4.79
2018-11-25T04:32:22.468Z,4.79
2018-11-25T04:34:52.746Z,4.81
2018-11-25T04:37:22.624Z,4.75
2018-11-25T04:39:52.831Z,4.73
2018-11-25T04:42:22.710Z,4.77
2018-11-25T04:44:52.933Z,4.76
2018-11-25T04:47:41.875Z,4.80
2018-11-25T04:50:30.731Z,4.74
2018-11-25T04:53:00.627Z,4.72
2018-11-25T04:55:30.793Z,4.77
2018-11-25T04:58:00.692Z,4.81
2018-11-25T05:00:30.591Z,4.83
2018-11-25T05:03:00.735Z,4.81
2018-11-25T05:05:30.575Z,4.80
2018-11-25T05:08:01.136Z,4.78
2018-11-25T05:10:30.995Z,4.69
2018-11-25T05:13:01.255Z,4.71
2018-11-25T05:15:31.077Z,4.73
2018-11-25T05:18:01.347Z,4.76
2018-11-25T05:20:31.282Z,4.81
2018-11-25T05:23:01.115Z,4.89
2018-11-25T05:25:30.968Z,4.90
2018-11-25T05:28:01.390Z,4.89
2018-11-25T05:30:31.188Z,4.93
2018-11-25T05:33:01.571Z,4.96
2018-11-25T05:35:31.374Z,4.91
2018-11-25T05:38:01.530Z,4.92
2018-11-25T05:40:31.374Z,4.87
2018-11-25T05:43:01.194Z,4.87
2018-11-25T05:45:31.081Z,4.88
2018-11-25T05:48:01.841Z,4.85
2018-11-25T05:50:31.673Z,4.85
2018-11-25T05:53:02.344Z,4.88
2018-11-25T05:55:51.088Z,4.87
2018-11-25T05:58:21.046Z,4.90
2018-11-25T06:00:50.960Z,4.86
2018-11-25T06:03:21.143Z,4.88
2018-11-25T06:05:50.968Z,4.88
2018-11-25T06:08:20.783Z,4.90
2018-11-25T06:10:50.636Z,4.90
2018-11-25T06:13:20.928Z,4.90
2018-11-25T06:15:50.783Z,4.93
2018-11-25T06:18:21.065Z,4.92
2018-11-25T06:20:51.132Z,4.94
2018-11-25T06:23:21.094Z,4.98
2018-11-25T06:25:50.910Z,5.10
2018-11-25T06:28:20.741Z,5.14
2018-11-25T06:30:51.103Z,5.14
2018-11-25T06:33:20.985Z,5.10
2018-11-25T06:35:50.867Z,5.05
2018-11-25T06:38:20.740Z,5.01
2018-11-25T06:40:50.619Z,5.02
2018-11-25T06:43:20.787Z,5.10
2018-11-25T06:45:50.717Z,5.09
2018-11-25T06:48:20.573Z,5.10
2018-11-25T06:50:57.757Z,5.05
2018-11-25T06:53:27.665Z,5.16
2018-11-25T06:55:58.018Z,5.13
2018-11-25T06:58:28.194Z,5.14
2018-11-25T07:00:58.537Z,5.10
2018-11-25T07:03:28.453Z,5.18
2018-11-25T07:05:58.310Z,5.12
2018-11-25T07:08:28.164Z,5.09
2018-11-25T07:11:16.978Z,5.17
2018-11-25T07:14:05.799Z,5.13
2018-11-25T07:16:35.718Z,5.12
2018-11-25T07:19:05.717Z,5.07
2018-11-25T07:21:35.972Z,5.12
2018-11-25T07:24:05.794Z,5.12
2018-11-25T07:26:36.421Z,5.10
2018-11-25T07:29:06.546Z,5.11
2018-11-25T07:31:36.358Z,5.13
2018-11-25T07:34:06.266Z,5.07
2018-11-25T07:36:36.437Z,5.07
2018-11-25T07:39:26.322Z,5.11
2018-11-25T07:41:56.194Z,5.12
2018-11-25T07:44:25.999Z,5.14
2018-11-25T07:46:56.339Z,5.22
2018-11-25T07:49:29.938Z,5.24
2018-11-25T07:51:59.908Z,5.23
2018-11-25T07:54:30.117Z,5.24
2018-11-25T07:57:00.070Z,5.25
2018-11-25T07:59:48.633Z,5.26
2018-11-25T08:02:18.466Z,5.25
2018-11-25T08:04:48.774Z,5.28
2018-11-25T08:07:37.373Z,5.28
2018-11-25T08:10:28.874Z,5.33
2018-11-25T08:12:58.707Z,5.34
2018-11-25T08:15:28.584Z,5.34
2018-11-25T08:17:59.422Z,5.42
2018-11-25T08:20:29.335Z,5.39
2018-11-25T08:22:59.515Z,5.40
2018-11-25T08:25:29.449Z,5.40
2018-11-25T08:27:59.383Z,5.56
2018-11-25T08:30:48.123Z,5.61
2018-11-25T08:33:36.783Z,5.69
2018-11-25T08:36:08.417Z,5.74
2018-11-25T08:38:38.238Z,5.72
2018-11-25T08:41:08.499Z,5.68
2018-11-25T08:43:38.464Z,5.65
2018-11-25T08:46:08.271Z,5.68
2018-11-25T08:48:38.150Z,5.64
2018-11-25T08:51:08.664Z,5.65
2018-11-25T08:53:38.548Z,5.64
2018-11-25T08:56:08.868Z,5.75
2018-11-25T08:58:38.765Z,5.73
2018-11-25T09:01:08.593Z,5.81
2018-11-25T09:03:39.904Z,5.80
2018-11-25T09:06:10.058Z,5.91
2018-11-25T09:08:39.955Z,5.84
2018-11-25T09:11:09.784Z,5.95
2018-11-25T09:13:40.797Z,5.88
2018-11-25T09:16:10.657Z,5.89
2018-11-25T09:18:40.598Z,5.91
2018-11-25T09:21:10.521Z,5.94
2018-11-25T09:23:40.859Z,5.92
2018-11-25T09:26:10.747Z,5.92
2018-11-25T09:28:40.722Z,5.99
2018-11-25T09:31:10.591Z,6.15
2018-11-25T09:33:40.528Z,6.19
2018-11-25T09:36:10.380Z,6.28
2018-11-25T09:38:40.514Z,6.29
2018-11-25T09:41:29.460Z,6.31
2018-11-25T09:43:59.373Z,6.27
2018-11-25T09:46:29.322Z,6.27
2018-11-25T09:48:59.225Z,6.28
2018-11-25T09:51:29.161Z,6.23
2018-11-25T09:53:59.039Z,6.27
2018-11-25T09:56:29.066Z,6.27
2018-11-25T09:58:59.253Z,6.32
2018-11-25T10:01:29.124Z,6.24
2018-11-25T10:03:59.328Z,6.22
2018-11-25T10:06:29.202Z,6.29
2018-11-25T10:08:59.690Z,6.31
2018-11-25T10:11:50.420Z,6.40
2018-11-25T10:14:39.159Z,6.53
2018-11-25T10:17:09.076Z,6.60
2018-11-25T10:19:39.165Z,6.66
2018-11-25T10:22:09.101Z,6.75
2018-11-25T10:24:39.528Z,6.71
2018-11-25T10:27:09.410Z,6.68
2018-11-25T10:29:39.337Z,6.68
2018-11-25T10:32:09.445Z,6.69
2018-11-25T10:34:39.757Z,6.71
2018-11-25T10:37:09.617Z,6.70
2018-11-25T10:39:39.488Z,6.71
2018-11-25T10:42:09.748Z,6.85
2018-11-25T10:44:40.280Z,6.91
2018-11-25T10:47:10.561Z,6.95
2018-11-25T10:49:40.505Z,6.98
2018-11-25T10:52:10.944Z,6.90
2018-11-25T10:54:40.870Z,6.81
2018-11-25T10:57:11.343Z,6.85
2018-11-25T10:59:41.574Z,6.94
2018-11-25T11:02:30.131Z,6.97
2018-11-25T11:05:18.664Z,6.87
2018-11-25T11:07:48.872Z,6.87
2018-11-25T11:10:18.854Z,6.86
2018-11-25T11:12:49.708Z,6.83
2018-11-25T11:15:38.198Z,6.87
2018-11-25T11:18:08.793Z,6.97
2018-11-25T11:20:38.679Z,6.87
2018-11-25T11:23:27.705Z,6.86
2018-11-25T11:25:57.583Z,6.86
2018-11-25T11:28:27.966Z,6.84
2018-11-25T11:30:57.865Z,6.81
2018-11-25T11:33:27.704Z,7.06
2018-11-25T11:35:57.569Z,7.05
2018-11-25T11:38:27.425Z,6.96
2018-11-25T11:40:57.416Z,6.87
2018-11-25T11:43:27.285Z,6.82
2018-11-25T11:45:57.218Z,6.74
2018-11-25T11:48:27.180Z,6.79
2018-11-25T11:50:57.144Z,6.66
2018-11-25T11:53:27.278Z,6.65
2018-11-25T11:55:57.183Z,6.75
2018-11-25T11:58:27.054Z,6.88
2018-11-25T12:00:57.159Z,6.75
2018-11-25T12:03:27.089Z,6.76
2018-11-25T12:05:57.866Z,6.76
2018-11-25T12:08:27.768Z,6.68
2018-11-25T12:10:57.643Z,6.62
2018-11-25T12:13:27.470Z,6.63
2018-11-25T12:15:58.249Z,6.67
2018-11-25T12:18:29.110Z,6.70
2018-11-25T12:20:58.953Z,6.63
2018-11-25T12:23:28.740Z,6.61
2018-11-25T12:25:58.641Z,6.75
2018-11-25T12:28:28.492Z,6.61
2018-11-25T12:30:58.671Z,6.54
2018-11-25T12:33:28.924Z,6.49
2018-11-25T12:35:58.916Z,6.53
2018-11-25T12:38:28.724Z,6.47
2018-11-25T12:40:58.726Z,6.39
2018-11-25T12:43:28.643Z,6.46
2018-11-25T12:45:58.537Z,6.56
2018-11-25T12:48:28.800Z,6.46
2018-11-25T12:50:58.717Z,6.51
2018-11-25T12:53:28.637Z,6.52
2018-11-25T12:55:58.555Z,6.48
2018-11-25T12:58:28.833Z,6.43
2018-11-25T13:00:58.701Z,6.46
2018-11-25T13:03:28.820Z,6.48
2018-11-25T13:05:58.976Z,6.47
2018-11-25T13:08:29.364Z,6.42
2018-11-25T13:10:59.554Z,6.40
2018-11-25T13:13:47.947Z,6.41
2018-11-25T13:16:17.894Z,6.42
2018-11-25T13:18:47.704Z,6.48
2018-11-25T13:21:17.646Z,6.41
2018-11-25T13:23:47.504Z,6.44
2018-11-25T13:26:17.814Z,6.53
2018-11-25T13:28:48.041Z,6.56
2018-11-25T13:31:17.995Z,6.65
2018-11-25T13:33:47.838Z,6.63
2018-11-25T13:36:17.745Z,6.60
2018-11-25T13:38:48.104Z,6.55
2018-11-25T13:41:18.000Z,6.56
2018-11-25T13:43:47.845Z,6.55
2018-11-25T13:46:17.944Z,6.55
2018-11-25T13:48:47.848Z,6.56
2018-11-25T13:51:18.298Z,6.56
2018-11-25T13:53:48.159Z,6.52
2018-11-25T13:56:18.010Z,6.48
2018-11-25T13:58:48.017Z,6.63
2018-11-25T14:01:17.843Z,6.57
2018-11-25T14:03:48.087Z,6.59
2018-11-25T14:06:18.058Z,6.58
2018-11-25T14:08:50.659Z,6.52
2018-11-25T14:11:20.595Z,6.59
2018-11-25T14:13:50.402Z,6.52
2018-11-25T14:16:21.894Z,6.55
2018-11-25T14:18:51.730Z,6.56
2018-11-25T14:21:21.971Z,6.53
2018-11-25T14:23:51.940Z,6.52
2018-11-25T14:26:59.574Z,6.53
2018-11-25T14:29:48.576Z,6.44
2018-11-25T14:32:18.468Z,6.52
2018-11-25T14:35:06.883Z,6.49
2018-11-25T14:37:37.147Z,6.63
2018-11-25T14:40:09.337Z,6.56
2018-11-25T14:42:39.552Z,6.64
2018-11-25T14:45:13.586Z,6.50
2018-11-25T14:47:43.707Z,6.53
2018-11-25T14:50:32.589Z,6.59
2018-11-25T14:53:02.984Z,6.49
2018-11-25T14:55:33.130Z,6.48
2018-11-25T14:58:03.009Z,6.51
2018-11-25T15:00:32.982Z,6.46
2018-11-25T15:03:04.246Z,6.53
2018-11-25T15:06:03.254Z,6.47
2018-11-25T15:08:33.223Z,6.49
2018-11-25T15:11:03.696Z,6.47
2018-11-25T15:13:33.589Z,6.43
2018-11-25T15:16:04.734Z,6.42
2018-11-25T15:18:34.634Z,6.47
2018-11-25T15:21:04.592Z,6.52
2018-11-25T15:23:34.552Z,6.47
2018-11-25T15:26:04.414Z,6.52
2018-11-25T15:28:34.342Z,6.50
2018-11-25T15:31:04.353Z,6.63
2018-11-25T15:33:34.275Z,6.69
2018-11-25T15:36:23.072Z,6.59
2018-11-25T15:38:53.045Z,6.62
2018-11-25T15:41:22.941Z,6.65
2018-11-25T15:44:11.793Z,6.58
2018-11-25T15:46:41.821Z,6.65
2018-11-25T15:49:31.104Z,6.53
2018-11-25T15:52:01.139Z,6.49
2018-11-25T15:54:31.084Z,6.46
2018-11-25T15:57:01.157Z,6.53
2018-11-25T15:59:31.058Z,6.47
2018-11-25T16:02:01.034Z,6.55
2018-11-25T16:04:31.026Z,6.59
2018-11-25T16:07:00.899Z,6.60
2018-11-25T16:09:30.900Z,6.54
2018-11-25T16:12:00.804Z,6.58
2018-11-25T16:14:30.654Z,6.54
2018-11-25T16:17:00.536Z,6.41
2018-11-25T16:19:30.456Z,6.51
2018-11-25T16:22:19.370Z,6.58
2018-11-25T16:24:49.234Z,6.52
2018-11-25T16:27:19.181Z,6.46
2018-11-25T16:29:48.946Z,6.42
2018-11-25T16:32:19.437Z,6.41
2018-11-25T16:34:49.676Z,6.63
2018-11-25T16:37:19.566Z,6.54
2018-11-25T16:39:49.860Z,6.45
2018-11-25T16:42:20.243Z,6.40
2018-11-25T16:44:50.737Z,6.35
2018-11-25T16:47:20.634Z,6.44
2018-11-25T16:49:50.981Z,6.43
2018-11-25T16:52:21.474Z,6.49
2018-11-25T16:54:51.599Z,6.50
2018-11-25T16:57:22.234Z,6.58
2018-11-25T16:59:52.372Z,6.64
2018-11-25T17:02:22.285Z,6.53
2018-11-25T17:04:52.808Z,6.50
2018-11-25T17:07:22.659Z,6.43
2018-11-25T17:09:52.918Z,6.41
2018-11-25T17:12:23.811Z,6.42
2018-11-25T17:14:53.667Z,6.43
2018-11-25T17:17:23.741Z,6.61
2018-11-25T17:19:53.596Z,6.52
2018-11-25T17:22:23.542Z,6.51
2018-11-25T17:24:53.874Z,6.46
2018-11-25T17:27:24.256Z,6.50
2018-11-25T17:29:54.172Z,6.50
2018-11-25T17:32:25.160Z,6.40
2018-11-25T17:34:56.124Z,6.44
2018-11-25T17:37:26.526Z,6.42
2018-11-25T17:39:56.769Z,6.42
2018-11-25T17:42:27.296Z,6.46
2018-11-25T17:44:57.105Z,6.53
2018-11-25T17:47:27.073Z,6.49
2018-11-25T17:49:57.071Z,6.42
2018-11-25T17:52:27.046Z,6.44
2018-11-25T17:54:57.070Z,6.42
2018-11-25T17:57:26.906Z,6.42
2018-11-25T17:59:56.787Z,6.40
2018-11-25T18:02:26.718Z,6.40
2018-11-25T18:04:57.228Z,6.37
2018-11-25T18:07:27.096Z,6.27
2018-11-25T18:09:57.090Z,6.17
2018-11-25T18:12:26.952Z,6.16
2018-11-25T18:14:56.856Z,6.28
2018-11-25T18:17:26.720Z,6.21
2018-11-25T18:19:56.671Z,6.24
2018-11-25T18:22:47.949Z,6.24
2018-11-25T18:25:17.989Z,6.22
2018-11-25T18:27:48.242Z,6.13
2018-11-25T18:30:19.340Z,6.18
2018-11-25T18:32:49.176Z,6.07
2018-11-25T18:35:19.130Z,6.10
2018-11-25T18:37:49.122Z,6.06
2018-11-25T18:40:19.056Z,6.16
2018-11-25T18:42:49.332Z,6.14
2018-11-25T18:45:20.895Z,6.17
2018-11-25T18:47:52.066Z,6.21
2018-11-25T18:50:22.408Z,6.26
2018-11-25T18:52:53.998Z,6.26
2018-11-25T18:55:21.902Z,6.16
2018-11-25T18:57:51.800Z,6.22
2018-11-25T19:00:41.874Z,6.19
2018-11-25T19:03:12.511Z,6.07
2018-11-25T19:05:43.321Z,6.17
2018-11-25T19:08:13.520Z,6.11
2018-11-25T19:11:02.449Z,6.03
2018-11-25T19:13:32.279Z,5.98
2018-11-25T19:16:02.268Z,6.05
2018-11-25T19:18:32.231Z,6.14
2018-11-25T19:21:02.638Z,6.11
2018-11-25T19:23:32.696Z,6.04
2018-11-25T19:26:03.471Z,6.09
2018-11-25T19:28:33.441Z,6.05
2018-11-25T19:31:03.841Z,5.99
2018-11-25T19:33:33.716Z,5.99
2018-11-25T19:36:22.764Z,5.99
2018-11-25T19:38:52.638Z,6.02
2018-11-25T19:41:22.661Z,6.07
2018-11-25T19:43:53.454Z,6.05
2018-11-25T19:46:23.402Z,6.03
2018-11-25T19:48:53.824Z,6.02
2018-11-25T19:51:24.064Z,6.04
2018-11-25T19:53:54.062Z,6.05
2018-11-25T19:56:24.012Z,6.05
2018-11-25T19:58:59.900Z,6.04
2018-11-25T20:01:30.634Z,6.07
2018-11-25T20:04:00.664Z,6.01
2018-11-25T20:06:31.171Z,5.99
2018-11-25T20:09:01.285Z,5.94
2018-11-25T20:11:31.155Z,5.94
2018-11-25T20:14:01.822Z,5.90
2018-11-25T20:16:50.238Z,5.84
2018-11-25T20:19:20.094Z,5.77
2018-11-25T20:22:08.618Z,5.87
2018-11-25T20:24:38.609Z,5.93
2018-11-25T20:27:27.026Z,5.94
2018-11-25T20:29:57.644Z,5.88
2018-11-25T20:32:46.206Z,5.80
2018-11-25T20:35:15.993Z,5.77
2018-11-25T20:38:04.577Z,5.78
2018-11-25T20:40:35.090Z,5.79
2018-11-25T20:43:05.027Z,5.73
2018-11-25T20:45:53.783Z,5.66
2018-11-25T20:48:23.750Z,5.67
2018-11-25T20:50:53.801Z,5.70
2018-11-25T20:53:42.344Z,5.70
2018-11-25T20:56:12.278Z,5.77
2018-11-25T20:58:42.240Z,5.68
2018-11-25T21:01:12.131Z,5.70
2018-11-25T21:03:42.093Z,5.66
2018-11-25T21:06:12.431Z,5.68
2018-11-25T21:08:42.249Z,5.67
2018-11-25T21:11:12.312Z,5.67
2018-11-25T21:13:42.369Z,5.59
2018-11-25T21:16:12.707Z,5.60
2018-11-25T21:18:43.183Z,5.59
2018-11-25T21:21:13.488Z,5.49
2018-11-25T21:23:44.006Z,5.54
2018-11-25T21:26:13.951Z,5.57
2018-11-25T21:28:44.060Z,5.60
2018-11-25T21:31:14.511Z,5.58
2018-11-25T21:33:44.422Z,5.56
2018-11-25T21:36:14.265Z,5.51
2018-11-25T21:38:44.675Z,5.57
2018-11-25T21:41:14.621Z,5.65
2018-11-25T21:43:44.670Z,5.62
2018-11-25T21:46:14.669Z,5.54
2018-11-25T21:48:44.576Z,5.48
2018-11-25T21:51:14.754Z,5.50
2018-11-25T21:53:44.753Z,5.60
2018-11-25T21:56:14.664Z,5.64
2018-11-25T21:58:45.214Z,5.54
2018-11-25T22:01:15.126Z,5.64
2018-11-25T22:03:45.094Z,5.64
2018-11-25T22:06:15.153Z,5.65
2018-11-25T22:08:45.444Z,5.58
2018-11-25T22:11:15.680Z,5.50
2018-11-25T22:13:45.655Z,5.58
2018-11-25T22:16:15.576Z,5.58
2018-11-25T22:18:45.793Z,5.62
2018-11-25T22:21:15.679Z,5.60
2018-11-25T22:23:45.612Z,5.55
2018-11-25T22:26:15.462Z,5.51
2018-11-25T22:28:45.911Z,5.50
2018-11-25T22:31:15.698Z,5.48
2018-11-25T22:34:04.566Z,5.53
2018-11-25T22:36:34.377Z,5.56
2018-11-25T22:39:06.236Z,5.50
2018-11-25T22:41:55.184Z,5.53
2018-11-25T22:44:25.063Z,5.51
2018-11-25T22:46:55.106Z,5.54
2018-11-25T22:49:25.328Z,5.54
2018-11-25T22:51:55.204Z,5.54
2018-11-25T22:54:25.077Z,5.46
2018-11-25T22:56:55.225Z,5.43
2018-11-25T22:59:25.022Z,5.55
2018-11-25T23:01:54.899Z,5.50
2018-11-25T23:05:02.610Z,5.48
2018-11-25T23:07:32.553Z,5.52
2018-11-25T23:10:02.351Z,5.53
2018-11-25T23:12:32.194Z,5.55
2018-11-25T23:15:02.040Z,5.53
2018-11-25T23:17:31.899Z,5.52
2018-11-25T23:20:20.564Z,5.46
2018-11-25T23:22:50.439Z,5.46
2018-11-25T23:25:20.320Z,5.48
2018-11-25T23:27:50.182Z,5.38
2018-11-25T23:30:20.071Z,5.41
2018-11-25T23:32:49.912Z,5.36
2018-11-25T23:35:21.936Z,5.37
2018-11-25T23:37:51.860Z,5.33
2018-11-25T23:40:22.108Z,5.32
2018-11-25T23:42:51.926Z,5.32
2018-11-25T23:45:22.050Z,5.31
2018-11-25T23:47:51.940Z,5.32
2018-11-25T23:50:21.781Z,5.27
2018-11-25T23:52:51.682Z,5.30
2018-11-25T23:55:21.577Z,5.25
2018-11-25T23:57:51.512Z,5.22
